createdAt,value
2018-05-23T00:00:45.091Z,19.60
2018-05-23T00:03:13.973Z,17.60
2018-05-23T00:05:43.661Z,17.07
2018-05-23T00:08:12.541Z,18.03
2018-05-23T00:10:42.180Z,17.57
2018-05-23T00:13:11.076Z,16.30
2018-05-23T00:15:39.983Z,16.90
2018-05-23T00:18:09.628Z,15.10
2018-05-23T00:20:38.504Z,17.87
2018-05-23T00:23:07.403Z,18.53
2018-05-23T00:37:30.136Z,17.27
2018-05-23T00:39:59.025Z,18.07
2018-05-23T00:42:27.953Z,17.40
2018-05-23T00:44:56.832Z,19.23
2018-05-23T00:47:25.707Z,17.57
2018-05-23T00:49:54.619Z,22.30
2018-05-23T00:52:23.498Z,17.80
2018-05-23T00:55:10.155Z,17.63
2018-05-23T00:57:39.033Z,21.57
2018-05-23T01:00:07.909Z,16.87
2018-05-23T01:02:36.803Z,18.80
2018-05-23T01:05:05.682Z,15.77
2018-05-23T01:07:34.596Z,16.20
2018-05-23T01:10:03.510Z,15.03
2018-05-23T01:12:32.388Z,15.93
2018-05-23T01:15:01.288Z,15.40
2018-05-23T01:17:30.166Z,15.40
2018-05-23T01:19:59.081Z,17.57
2018-05-23T01:22:27.975Z,16.50
2018-05-23T01:24:56.868Z,17.60
2018-05-23T01:27:26.555Z,16.80
2018-05-23T01:29:55.434Z,17.00
2018-05-23T01:32:25.132Z,14.87
2018-05-23T01:34:54.027Z,14.83
2018-05-23T01:37:22.986Z,18.33
2018-05-23T01:39:51.867Z,20.40
2018-05-23T01:42:20.746Z,16.63
2018-05-23T01:44:49.652Z,14.70
2018-05-23T01:47:19.292Z,14.93
2018-05-23T01:49:48.190Z,15.30
2018-05-23T01:52:17.071Z,17.13
2018-05-23T01:54:45.948Z,15.50
2018-05-23T01:57:15.632Z,16.40
2018-05-23T01:59:44.513Z,14.80
2018-05-23T02:02:13.403Z,15.20
2018-05-23T02:04:43.088Z,15.33
2018-05-23T02:07:12.727Z,13.77
2018-05-23T02:09:41.623Z,14.63
2018-05-23T02:12:11.285Z,14.17
2018-05-23T02:14:40.164Z,15.20
2018-05-23T02:17:09.063Z,13.73
2018-05-23T02:19:37.968Z,15.27
2018-05-23T02:22:07.632Z,17.80
2018-05-23T02:24:36.532Z,14.43
2018-05-23T02:27:05.432Z,13.87
2018-05-23T02:29:34.301Z,14.87
2018-05-23T02:32:03.995Z,12.90
2018-05-23T02:34:32.867Z,14.57
2018-05-23T02:37:02.508Z,13.47
2018-05-23T02:39:31.437Z,15.27
2018-05-23T02:42:01.080Z,14.70
2018-05-23T02:44:29.959Z,15.00
2018-05-23T02:46:58.873Z,14.60
2018-05-23T02:49:28.523Z,15.50
2018-05-23T02:51:57.397Z,15.20
2018-05-23T02:54:26.317Z,15.07
2018-05-23T02:56:55.977Z,14.10
2018-05-23T02:59:24.858Z,13.87
2018-05-23T03:01:53.751Z,13.83
2018-05-23T03:04:23.425Z,13.43
2018-05-23T03:06:52.307Z,15.47
2018-05-23T03:09:21.183Z,12.07
2018-05-23T03:11:50.080Z,13.53
2018-05-23T03:14:19.719Z,11.90
2018-05-23T03:16:49.429Z,12.33
2018-05-23T03:19:18.307Z,12.57
2018-05-23T03:21:47.176Z,13.87
2018-05-23T03:24:16.082Z,13.83
2018-05-23T03:26:44.985Z,12.13
2018-05-23T03:29:13.899Z,13.07
2018-05-23T03:31:42.774Z,13.53
2018-05-23T03:34:11.647Z,14.03
2018-05-23T03:36:40.559Z,12.83
2018-05-23T03:39:10.211Z,15.50
2018-05-23T03:41:39.092Z,10.47
2018-05-23T03:44:08.017Z,11.70
2018-05-23T03:46:36.903Z,12.40
2018-05-23T03:49:05.780Z,13.20
2018-05-23T03:51:34.759Z,12.37
2018-05-23T03:54:04.019Z,14.73
2018-05-23T03:56:34.275Z,12.93
2018-05-23T03:59:03.189Z,16.53
2018-05-23T04:01:50.792Z,11.63
2018-05-23T04:04:37.525Z,14.47
2018-05-23T04:10:14.511Z,13.77
2018-05-23T04:12:43.415Z,10.53
2018-05-23T04:15:12.296Z,11.10
2018-05-23T04:17:41.167Z,8.10
2018-05-23T04:20:10.061Z,9.47
2018-05-23T04:22:39.715Z,10.57
2018-05-23T04:25:08.609Z,8.67
2018-05-23T04:27:37.484Z,8.73
2018-05-23T04:30:06.411Z,8.03
2018-05-23T04:32:35.289Z,9.20
2018-05-23T04:35:04.168Z,8.40
2018-05-23T04:37:33.067Z,11.03
2018-05-23T04:40:01.959Z,9.33
2018-05-23T04:42:30.858Z,11.57
2018-05-23T04:45:00.516Z,9.30
2018-05-23T04:47:29.403Z,10.20
2018-05-23T04:49:58.280Z,9.13
2018-05-23T04:52:27.173Z,9.40
2018-05-23T04:54:56.868Z,10.87
2018-05-23T04:57:26.512Z,10.43
2018-05-23T04:59:55.381Z,9.33
2018-05-23T05:02:24.275Z,9.23
2018-05-23T05:04:53.159Z,8.57
2018-05-23T05:07:22.041Z,8.40
2018-05-23T05:09:51.717Z,7.93
2018-05-23T05:12:20.624Z,9.30
2018-05-23T05:14:50.256Z,7.57
2018-05-23T05:17:19.128Z,7.57
2018-05-23T05:19:48.023Z,9.57
2018-05-23T05:22:16.935Z,6.13
2018-05-23T05:24:46.579Z,10.70
2018-05-23T05:27:15.447Z,8.50
2018-05-23T05:29:44.339Z,8.30
2018-05-23T05:32:13.975Z,5.67
2018-05-23T05:34:43.643Z,8.33
2018-05-23T05:37:12.512Z,9.07
2018-05-23T05:39:41.375Z,9.17
2018-05-23T05:42:10.272Z,10.53
2018-05-23T05:44:39.153Z,9.73
2018-05-23T05:47:08.028Z,6.33
2018-05-23T05:49:37.690Z,5.87
2018-05-23T05:52:06.563Z,5.97
2018-05-23T05:54:35.471Z,6.23
2018-05-23T05:57:04.351Z,4.77
2018-05-23T05:59:33.987Z,6.27
2018-05-23T06:02:02.900Z,5.97
2018-05-23T06:04:31.782Z,6.13
2018-05-23T06:07:00.656Z,6.90
2018-05-23T06:09:29.625Z,5.00
2018-05-23T06:11:58.472Z,6.10
2018-05-23T06:14:27.341Z,5.03
2018-05-23T06:16:56.231Z,6.17
2018-05-23T06:19:25.127Z,6.10
2018-05-23T06:21:54.019Z,4.50
2018-05-23T06:24:23.658Z,8.37
2018-05-23T06:26:52.551Z,6.60
2018-05-23T06:29:21.422Z,5.23
2018-05-23T06:31:50.327Z,4.67
2018-05-23T06:34:19.199Z,7.37
2018-05-23T06:36:48.074Z,4.90
2018-05-23T06:39:16.983Z,5.60
2018-05-23T06:41:45.857Z,7.33
2018-05-23T06:44:14.732Z,6.63
2018-05-23T06:46:43.647Z,5.63
2018-05-23T06:49:12.514Z,5.60
2018-05-23T06:51:41.383Z,5.67
2018-05-23T06:54:10.279Z,6.43
2018-05-23T06:56:39.196Z,5.00
2018-05-23T06:59:08.832Z,5.13
2018-05-23T07:01:37.703Z,6.07
2018-05-23T07:04:06.593Z,6.57
2018-05-23T07:06:36.207Z,6.43
2018-05-23T07:09:05.859Z,7.17
2018-05-23T07:11:34.755Z,17.30
2018-05-23T07:14:03.645Z,10.90
2018-05-23T07:16:32.542Z,6.20
2018-05-23T07:19:02.187Z,6.33
2018-05-23T07:21:31.059Z,7.03
2018-05-23T07:23:59.981Z,14.57
2018-05-23T07:26:29.624Z,14.43
2018-05-23T07:28:58.499Z,26.00
2018-05-23T07:31:27.436Z,12.40
2018-05-23T07:33:56.318Z,6.47
2018-05-23T07:36:25.193Z,5.50
2018-05-23T07:38:54.083Z,4.43
2018-05-23T07:41:22.962Z,16.00
2018-05-23T07:43:51.858Z,18.10
2018-05-23T07:46:20.752Z,18.67
2018-05-23T07:48:49.631Z,5.40
2018-05-23T07:51:18.553Z,5.33
2018-05-23T07:53:47.428Z,6.67
2018-05-23T07:56:16.305Z,7.47
2018-05-23T07:58:45.200Z,19.70
2018-05-23T08:01:14.076Z,29.07
2018-05-23T08:03:42.969Z,15.47
2018-05-23T08:06:11.871Z,6.90
2018-05-23T08:08:41.511Z,5.83
2018-05-23T08:11:10.380Z,5.40
2018-05-23T08:13:39.272Z,6.80
2018-05-23T08:16:08.143Z,4.80
2018-05-23T08:18:37.035Z,5.13
2018-05-23T08:21:05.924Z,6.47
2018-05-23T08:23:34.795Z,5.13
2018-05-23T08:26:03.692Z,5.30
2018-05-23T08:28:33.328Z,5.67
2018-05-23T08:31:02.204Z,5.83
2018-05-23T08:33:31.128Z,6.13
2018-05-23T08:36:00.771Z,7.20
2018-05-23T08:38:29.663Z,6.70
2018-05-23T08:40:58.541Z,11.80
2018-05-23T08:43:27.415Z,12.70
2018-05-23T08:45:56.378Z,10.33
2018-05-23T08:48:25.223Z,6.17
2018-05-23T08:50:54.097Z,7.43
2018-05-23T08:53:22.988Z,8.20
2018-05-23T08:55:51.866Z,6.47
2018-05-23T08:58:20.783Z,5.60
2018-05-23T09:00:49.651Z,7.23
2018-05-23T09:03:18.518Z,6.67
2018-05-23T09:05:47.410Z,7.60
2018-05-23T09:08:17.044Z,5.93
2018-05-23T09:10:45.983Z,9.13
2018-05-23T09:13:15.636Z,8.90
2018-05-23T09:15:44.521Z,8.97
2018-05-23T09:18:13.429Z,8.87
2018-05-23T09:20:43.082Z,7.07
2018-05-23T09:23:11.963Z,8.83
2018-05-23T09:25:40.857Z,7.83
2018-05-23T09:28:09.727Z,7.07
2018-05-23T09:30:38.604Z,8.20
2018-05-23T09:33:07.504Z,18.17
2018-05-23T09:35:36.374Z,12.70
2018-05-23T09:38:05.286Z,10.53
2018-05-23T09:40:34.159Z,7.27
2018-05-23T09:43:03.028Z,6.13
2018-05-23T09:45:31.925Z,25.17
2018-05-23T09:48:00.803Z,14.93
2018-05-23T09:50:29.711Z,12.23
2018-05-23T09:52:59.351Z,6.07
2018-05-23T09:55:28.227Z,10.33
2018-05-23T09:57:57.132Z,11.67
2018-05-23T10:00:26.003Z,7.10
2018-05-23T10:02:54.870Z,7.10
2018-05-23T10:05:23.783Z,6.87
2018-05-23T10:07:53.424Z,10.00
2018-05-23T10:10:22.303Z,16.30
2018-05-23T10:12:51.308Z,23.20
2018-05-23T10:15:20.128Z,8.70
2018-05-23T10:17:49.027Z,14.07
2018-05-23T10:20:17.912Z,6.97
2018-05-23T10:22:46.812Z,7.13
2018-05-23T10:25:16.491Z,7.73
2018-05-23T10:27:45.364Z,10.27
2018-05-23T10:30:14.234Z,6.93
2018-05-23T10:32:43.133Z,5.67
2018-05-23T10:35:12.818Z,19.07
2018-05-23T10:37:41.698Z,19.60
2018-05-23T10:40:11.344Z,10.27
2018-05-23T10:42:40.262Z,7.27
2018-05-23T10:45:09.144Z,12.10
2018-05-23T10:47:38.799Z,8.93
2018-05-23T10:50:07.730Z,7.23
2018-05-23T10:52:36.612Z,15.40
2018-05-23T10:55:05.496Z,28.93
2018-05-23T10:57:35.413Z,23.40
2018-05-23T11:00:04.338Z,14.30
2018-05-23T11:02:33.998Z,7.90
2018-05-23T11:05:03.677Z,5.57
2018-05-23T11:07:32.558Z,6.70
2018-05-23T11:10:01.468Z,10.83
2018-05-23T11:12:31.103Z,9.23
2018-05-23T11:15:00.001Z,6.93
2018-05-23T11:17:28.896Z,7.03
2018-05-23T11:19:57.771Z,7.03
2018-05-23T11:22:26.671Z,8.37
2018-05-23T11:24:56.318Z,7.70
2018-05-23T11:27:25.212Z,7.73
2018-05-23T11:29:54.110Z,6.77
2018-05-23T11:32:23.767Z,6.20
2018-05-23T11:34:52.663Z,7.40
2018-05-23T11:37:21.631Z,6.60
2018-05-23T11:39:50.483Z,7.47
2018-05-23T11:42:19.356Z,7.33
2018-05-23T11:44:48.248Z,7.53
2018-05-23T11:47:17.121Z,7.47
2018-05-23T11:49:46.017Z,6.10
2018-05-23T11:52:15.677Z,7.73
2018-05-23T11:54:44.705Z,7.60
2018-05-23T11:57:13.502Z,6.13
2018-05-23T11:59:42.373Z,6.67
2018-05-23T12:02:11.263Z,7.57
2018-05-23T12:04:40.180Z,5.60
2018-05-23T12:07:09.072Z,6.27
2018-05-23T12:09:38.711Z,8.30
2018-05-23T12:12:07.611Z,9.30
2018-05-23T12:14:36.489Z,6.57
2018-05-23T12:17:05.420Z,5.63
2018-05-23T12:19:34.371Z,5.83
2018-05-23T12:22:03.194Z,7.00
2018-05-23T12:24:32.101Z,6.67
2018-05-23T12:27:00.988Z,6.57
2018-05-23T12:29:30.632Z,8.37
2018-05-23T12:31:59.526Z,7.57
2018-05-23T12:34:28.415Z,7.30
2018-05-23T12:36:57.302Z,6.67
2018-05-23T12:39:27.840Z,6.27
2018-05-23T12:41:56.744Z,6.20
2018-05-23T12:44:25.618Z,7.47
2018-05-23T12:46:54.487Z,6.63
2018-05-23T12:49:23.401Z,7.20
2018-05-23T12:51:52.273Z,8.97
2018-05-23T12:54:21.939Z,5.20
2018-05-23T12:56:50.857Z,7.30
2018-05-23T12:59:20.524Z,7.80
2018-05-23T13:01:49.418Z,7.03
2018-05-23T13:04:19.082Z,6.20
2018-05-23T13:06:47.948Z,7.03
2018-05-23T13:09:16.848Z,9.23
2018-05-23T13:11:45.723Z,7.50
2018-05-23T13:14:14.620Z,6.33
2018-05-23T13:16:44.297Z,7.07
2018-05-23T13:19:13.163Z,6.97
2018-05-23T13:21:42.035Z,6.97
2018-05-23T13:24:10.950Z,5.40
2018-05-23T13:26:39.823Z,7.43
2018-05-23T13:29:08.691Z,7.23
2018-05-23T13:31:37.607Z,8.27
2018-05-23T13:34:06.474Z,6.40
2018-05-23T13:36:36.184Z,8.43
2018-05-23T13:39:06.019Z,9.27
2018-05-23T13:41:35.659Z,7.63
2018-05-23T13:44:04.549Z,8.67
2018-05-23T13:46:33.469Z,5.87
2018-05-23T13:49:03.108Z,5.67
2018-05-23T13:51:32.069Z,6.23
2018-05-23T13:54:00.968Z,7.53
2018-05-23T13:56:29.836Z,5.73
2018-05-23T13:58:59.477Z,6.73
2018-05-23T14:01:28.477Z,7.93
2018-05-23T14:03:57.348Z,5.40
2018-05-23T14:06:26.223Z,7.57
2018-05-23T14:08:55.119Z,7.27
2018-05-23T14:11:23.988Z,7.40
2018-05-23T14:13:52.856Z,7.47
2018-05-23T14:16:21.751Z,6.03
2018-05-23T14:18:50.650Z,7.47
2018-05-23T14:21:19.559Z,8.27
2018-05-23T14:23:49.196Z,8.93
2018-05-23T14:26:18.073Z,6.97
2018-05-23T14:28:46.964Z,5.80
2018-05-23T14:31:15.845Z,7.30
2018-05-23T14:33:44.748Z,6.20
2018-05-23T14:36:14.401Z,6.27
2018-05-23T14:38:43.268Z,6.27
2018-05-23T14:41:12.222Z,5.73
2018-05-23T14:43:41.262Z,7.47
2018-05-23T14:46:10.005Z,7.53
2018-05-23T14:48:38.895Z,5.47
2018-05-23T14:51:07.781Z,5.93
2018-05-23T14:53:37.483Z,5.03
2018-05-23T14:56:07.122Z,7.77
2018-05-23T14:58:36.021Z,7.70
2018-05-23T15:01:04.925Z,4.70
2018-05-23T15:03:34.567Z,6.77
2018-05-23T15:06:03.471Z,6.67
2018-05-23T15:08:32.348Z,6.00
2018-05-23T15:11:01.999Z,5.90
2018-05-23T15:13:30.920Z,5.30
2018-05-23T15:16:00.562Z,6.20
2018-05-23T15:18:29.435Z,6.67
2018-05-23T15:20:58.344Z,6.43
2018-05-23T15:23:28.720Z,5.47
2018-05-23T15:25:57.611Z,6.37
2018-05-23T15:28:26.479Z,3.87
2018-05-23T15:30:55.370Z,4.53
2018-05-23T15:33:24.260Z,7.87
2018-05-23T15:35:53.133Z,7.33
2018-05-23T15:38:22.038Z,6.23
2018-05-23T15:40:51.667Z,5.33
2018-05-23T15:43:20.535Z,5.40
2018-05-23T15:45:49.447Z,5.40
2018-05-23T15:48:18.320Z,6.57
2018-05-23T15:50:47.188Z,7.03
2018-05-23T15:53:16.084Z,6.50
2018-05-23T15:55:44.963Z,4.80
2018-05-23T15:58:14.614Z,6.30
2018-05-23T16:00:43.512Z,5.50
2018-05-23T16:03:12.391Z,7.20
2018-05-23T16:05:41.260Z,6.37
2018-05-23T16:08:10.149Z,4.67
2018-05-23T16:10:39.062Z,6.80
2018-05-23T16:13:08.015Z,4.80
2018-05-23T16:15:37.654Z,5.27
2018-05-23T16:18:06.559Z,6.17
2018-05-23T16:20:35.545Z,6.03
2018-05-23T16:23:04.360Z,6.10
2018-05-23T16:25:33.247Z,8.30
2018-05-23T16:28:02.121Z,10.07
2018-05-23T16:30:31.048Z,5.20
2018-05-23T16:33:00.686Z,5.60
2018-05-23T16:35:29.587Z,6.33
2018-05-23T16:37:58.475Z,6.93
2018-05-23T16:40:27.347Z,6.20
2018-05-23T16:42:56.243Z,6.57
2018-05-23T16:45:25.891Z,6.00
2018-05-23T16:47:54.772Z,7.13
2018-05-23T16:50:23.669Z,6.87
2018-05-23T16:52:52.926Z,7.33
2018-05-23T16:55:21.803Z,6.53
2018-05-23T16:57:50.699Z,8.13
2018-05-23T17:00:19.615Z,7.23
2018-05-23T17:02:48.489Z,6.07
2018-05-23T17:05:17.363Z,7.27
2018-05-23T17:07:46.254Z,7.83
2018-05-23T17:10:15.123Z,9.10
2018-05-23T17:12:44.040Z,7.23
2018-05-23T17:15:12.916Z,6.93
2018-05-23T17:17:41.791Z,5.97
2018-05-23T17:20:10.696Z,7.07
2018-05-23T17:22:40.327Z,8.00
2018-05-23T17:25:09.195Z,6.37
2018-05-23T17:27:38.091Z,7.47
2018-05-23T17:30:06.964Z,6.83
2018-05-23T17:32:35.836Z,6.53
2018-05-23T17:35:04.750Z,5.73
2018-05-23T17:37:34.391Z,6.97
2018-05-23T17:40:03.311Z,6.90
2018-05-23T17:42:32.185Z,11.47
2018-05-23T17:45:01.062Z,8.63
2018-05-23T17:47:29.955Z,9.97
2018-05-23T17:49:59.598Z,8.23
2018-05-23T17:52:28.488Z,8.43
2018-05-23T17:54:57.359Z,8.17
2018-05-23T17:57:26.271Z,7.13
2018-05-23T17:59:55.915Z,7.13
2018-05-23T18:02:24.811Z,9.07
2018-05-23T18:04:53.698Z,8.60
2018-05-23T18:07:22.569Z,8.77
2018-05-23T18:09:51.467Z,7.43
2018-05-23T18:12:21.104Z,6.60
2018-05-23T18:14:49.978Z,9.10
2018-05-23T18:17:18.869Z,9.47
2018-05-23T18:19:47.788Z,7.30
2018-05-23T18:22:17.463Z,8.20
2018-05-23T18:24:47.113Z,7.13
2018-05-23T18:27:15.985Z,9.97
2018-05-23T18:29:44.955Z,9.20
2018-05-23T18:32:14.560Z,12.77
2018-05-23T18:34:43.459Z,10.40
2018-05-23T18:37:12.338Z,10.30
2018-05-23T18:39:41.241Z,10.43
2018-05-23T18:42:10.127Z,12.10
2018-05-23T18:44:39.003Z,10.03
2018-05-23T18:47:07.896Z,12.70
2018-05-23T18:49:36.796Z,10.73
2018-05-23T18:52:05.724Z,11.80
2018-05-23T18:54:34.685Z,12.60
2018-05-23T18:57:03.500Z,11.70
2018-05-23T18:59:32.427Z,10.13
2018-05-23T19:02:02.079Z,11.10
2018-05-23T19:04:30.956Z,14.43
2018-05-23T19:06:59.880Z,12.43
2018-05-23T19:09:28.758Z,11.50
2018-05-23T19:11:57.635Z,12.00
2018-05-23T19:14:26.539Z,14.87
2018-05-23T19:16:55.414Z,12.57
2018-05-23T19:19:24.287Z,11.80
2018-05-23T19:21:53.190Z,12.47
2018-05-23T19:24:22.071Z,10.63
2018-05-23T19:26:50.977Z,10.67
2018-05-23T19:29:19.855Z,12.73
2018-05-23T19:31:48.767Z,11.07
2018-05-23T19:34:17.658Z,123.67
2018-05-23T19:36:46.579Z,119.70
2018-05-23T19:39:15.459Z,59.00
2018-05-23T19:41:44.342Z,19.47
2018-05-23T19:44:13.264Z,130.03
2018-05-23T19:46:42.163Z,52.77
2018-05-23T19:49:11.808Z,46.70
2018-05-23T19:51:40.719Z,41.30
2018-05-23T19:54:09.604Z,24.40
2018-05-23T19:56:39.308Z,23.70
2018-05-23T19:59:08.179Z,18.77
2018-05-23T20:01:37.830Z,21.13
2018-05-23T20:04:06.715Z,12.67
2018-05-23T20:06:35.644Z,13.60
2018-05-23T20:09:07.337Z,13.67
2018-05-23T20:11:36.260Z,13.43
2018-05-23T20:14:05.201Z,16.30
2018-05-23T20:16:34.250Z,11.27
2018-05-23T20:19:03.190Z,11.33
2018-05-23T20:21:32.868Z,12.30
2018-05-23T20:24:02.504Z,11.47
2018-05-23T20:26:31.404Z,12.00
2018-05-23T20:29:00.288Z,44.60
2018-05-23T20:31:29.203Z,33.63
2018-05-23T20:33:58.079Z,14.53
2018-05-23T20:36:26.957Z,18.87
2018-05-23T20:38:55.852Z,13.80
2018-05-23T20:41:24.735Z,31.77
2018-05-23T20:43:53.636Z,21.17
2018-05-23T20:46:22.521Z,20.83
2018-05-23T20:48:52.179Z,19.77
2018-05-23T20:51:21.100Z,21.03
2018-05-23T20:53:50.740Z,18.20
2018-05-23T20:56:19.647Z,15.23
2018-05-23T20:58:48.605Z,14.73
2018-05-23T21:01:17.423Z,14.00
2018-05-23T21:03:46.736Z,12.77
2018-05-23T21:06:15.620Z,12.70
2018-05-23T21:08:44.547Z,10.13
2018-05-23T21:11:14.192Z,11.67
2018-05-23T21:13:43.877Z,14.90
2018-05-23T21:16:12.747Z,11.80
2018-05-23T21:18:41.620Z,10.93
2018-05-23T21:21:10.516Z,13.00
2018-05-23T21:23:39.394Z,12.30
2018-05-23T21:26:08.267Z,12.80
2018-05-23T21:28:37.166Z,13.23
2018-05-23T21:31:06.076Z,11.20
2018-05-23T21:33:34.955Z,13.50
2018-05-23T21:36:03.877Z,10.27
2018-05-23T21:38:32.754Z,11.53
2018-05-23T21:41:01.645Z,10.53
2018-05-23T21:43:30.541Z,11.63
2018-05-23T21:45:59.411Z,9.93
2018-05-23T21:48:29.070Z,11.93
2018-05-23T21:50:57.977Z,10.27
2018-05-23T21:53:27.643Z,10.57
2018-05-23T21:55:56.544Z,11.37
2018-05-23T21:58:28.136Z,14.37
2018-05-23T22:00:57.011Z,12.53
2018-05-23T22:03:25.911Z,11.50
2018-05-23T22:05:54.791Z,10.97
2018-05-23T22:08:23.689Z,12.07
2018-05-23T22:10:53.329Z,11.67
2018-05-23T22:13:22.236Z,12.03
2018-05-23T22:15:51.107Z,10.30
2018-05-23T22:18:20.044Z,13.10
2018-05-23T22:20:48.922Z,11.30
2018-05-23T22:23:17.796Z,12.87
2018-05-23T22:25:46.672Z,11.50
2018-05-23T22:28:15.568Z,11.87
2018-05-23T22:30:44.450Z,10.77
2018-05-23T22:33:14.106Z,12.50
2018-05-23T22:35:43.015Z,12.87
2018-05-23T22:38:12.751Z,11.13
2018-05-23T22:40:41.623Z,10.53
2018-05-23T22:43:10.519Z,14.17
2018-05-23T22:45:39.391Z,12.27
2018-05-23T22:48:08.293Z,11.67
2018-05-23T22:50:37.932Z,11.27
2018-05-23T22:53:06.826Z,10.73
2018-05-23T22:55:35.747Z,11.73
2018-05-23T22:58:04.620Z,11.00
2018-05-23T23:00:33.527Z,9.97
2018-05-23T23:03:03.360Z,13.47
2018-05-23T23:05:32.241Z,12.63
2018-05-23T23:08:01.143Z,13.30
2018-05-23T23:10:30.019Z,13.90
2018-05-23T23:12:59.728Z,12.00
2018-05-23T23:15:28.604Z,12.33
2018-05-23T23:17:57.480Z,11.40
2018-05-23T23:20:27.140Z,12.97
2018-05-23T23:22:56.018Z,12.03
2018-05-23T23:25:24.934Z,11.63
2018-05-23T23:27:54.598Z,12.17
2018-05-23T23:30:23.471Z,10.90
2018-05-23T23:32:52.372Z,14.57
2018-05-23T23:35:22.023Z,12.13
2018-05-23T23:37:50.940Z,12.10
2018-05-23T23:40:20.582Z,13.77
2018-05-23T23:42:49.460Z,13.13
2018-05-23T23:45:18.359Z,11.57
2018-05-23T23:47:47.232Z,13.37
2018-05-23T23:50:16.145Z,14.87
2018-05-23T23:52:45.020Z,12.80
2018-05-23T23:55:13.894Z,12.33
2018-05-23T23:57:42.808Z,14.13
